Time;durP1;ratioP1;P1;durP2;ratioP2;P2;SDS_P1;SDS_P2;PMS_P1;PMS_P2;Temp;Humidity;BMP_temperature;BMP_pressure;BME280_temperature;BME280_humidity;BME280_pressure;Samples;Min_cycle;Max_cycle;Signal;HPM_P1;HPM_P2
2021/08/28 00:02:01;;;;;;;9.50;8.70;;;12.20;78.50;;;;;;4952217;29;20054;-69
2021/08/28 00:04:34;;;;;;;8.80;7.95;;;12.10;79.00;;;;;;4944956;29;20525;-70
2021/08/28 00:07:06;;;;;;;9.23;8.43;;;12.10;78.90;;;;;;4951252;29;20054;-70
2021/08/28 00:09:38;;;;;;;9.07;8.32;;;12.10;78.80;;;;;;4950988;29;20061;-71
2021/08/28 00:12:10;;;;;;;8.88;8.07;;;12.10;79.40;;;;;;4949481;29;20059;-71
2021/08/28 00:14:42;;;;;;;8.55;7.85;;;12.10;80.20;;;;;;4953592;29;20067;-71
2021/08/28 00:17:14;;;;;;;8.80;7.97;;;12.00;80.60;;;;;;4951876;29;20047;-71
2021/08/28 00:19:45;;;;;;;8.88;8.07;;;12.10;80.30;;;;;;4951208;29;20473;-71
2021/08/28 00:22:17;;;;;;;8.98;8.23;;;12.10;80.00;;;;;;4950808;29;20049;-73
2021/08/28 00:24:49;;;;;;;8.90;8.10;;;12.10;79.60;;;;;;4952071;29;20094;-72
2021/08/28 00:27:21;;;;;;;9.32;8.43;;;12.10;79.10;;;;;;4953684;29;20043;-71
2021/08/28 00:29:53;;;;;;;9.65;8.65;;;12.10;79.50;;;;;;4950973;29;20676;-70
2021/08/28 00:32:25;;;;;;;9.57;8.77;;;12.10;79.50;;;;;;4950750;29;20467;-71
2021/08/28 00:34:57;;;;;;;9.15;8.25;;;12.10;79.40;;;;;;4950431;29;20051;-71
2021/08/28 00:37:29;;;;;;;9.05;8.15;;;12.20;79.20;;;;;;4952431;29;20564;-71
2021/08/28 00:40:01;;;;;;;8.90;8.10;;;12.10;79.50;;;;;;4951610;29;20781;-72
2021/08/28 00:42:43;;;;;;;8.82;8.02;;;12.00;79.70;;;;;;4951555;29;20541;-71
2021/08/28 00:45:15;;;;;;;8.75;8.02;;;12.00;80.00;;;;;;4952409;29;20885;-71
2021/08/28 00:48:05;;;;;;;8.52;7.82;;;12.00;80.40;;;;;;4952017;29;20135;-73
2021/08/28 00:50:40;;;;;;;8.75;7.90;;;11.90;80.40;;;;;;4954032;29;20138;-71
2021/08/28 00:53:15;;;;;;;8.50;7.80;;;11.90;81.00;;;;;;4953735;29;20078;-71
2021/08/28 00:55:48;;;;;;;9.00;8.20;;;11.90;81.30;;;;;;4952438;29;20190;-70
2021/08/28 00:58:22;;;;;;;9.30;8.50;;;11.80;81.20;;;;;;4953025;29;20051;-71
2021/08/28 01:01:03;;;;;;;9.10;8.20;;;11.80;81.80;;;;;;4955607;29;20513;-72
2021/08/28 01:03:41;;;;;;;8.63;7.93;;;11.80;81.30;;;;;;4955460;29;20549;-70
2021/08/28 01:06:25;;;;;;;8.93;8.23;;;11.80;80.80;;;;;;4953782;29;20042;-71
2021/08/28 01:09:25;;;;;;;8.63;7.93;;;11.80;80.60;;;;;;4956160;29;20067;-71
2021/08/28 01:12:17;;;;;;;9.23;8.50;;;11.80;80.40;;;;;;4952930;29;20145;-71
2021/08/28 01:15:08;;;;;;;8.95;8.20;;;11.80;79.90;;;;;;4961604;29;20062;-71
2021/08/28 01:17:47;;;;;;;9.43;8.65;;;11.80;80.00;;;;;;4952691;29;20075;-70
2021/08/28 01:20:22;;;;;;;9.73;8.85;;;11.70;81.30;;;;;;4955544;29;20055;-73
2021/08/28 01:23:33;;;;;;;8.75;8.05;;;11.60;81.40;;;;;;4957758;29;20055;-68
2021/08/28 01:26:30;;;;;;;9.75;8.85;;;11.60;82.80;;;;;;4953867;29;20049;-72
2021/08/28 01:29:17;;;;;;;9.30;8.50;;;11.70;82.30;;;;;;4955004;29;20043;-69
2021/08/28 01:31:51;;;;;;;9.32;8.48;;;11.70;83.00;;;;;;4951938;29;20050;-71
2021/08/28 01:34:26;;;;;;;9.55;8.75;;;11.70;82.30;;;;;;4966385;29;20069;-70
2021/08/28 01:36:58;;;;;;;9.50;8.60;;;11.70;82.10;;;;;;4953238;29;20700;-70
2021/08/28 01:39:50;;;;;;;9.25;8.45;;;11.70;81.80;;;;;;4954951;29;20451;-70
2021/08/28 01:42:32;;;;;;;9.52;8.73;;;11.80;82.10;;;;;;4959989;29;20055;-72
2021/08/28 01:45:11;;;;;;;9.40;8.60;;;11.70;83.40;;;;;;4957958;29;20127;-71
2021/08/28 01:47:46;;;;;;;9.98;8.98;;;11.70;83.80;;;;;;4937764;29;20050;-70
2021/08/28 01:50:23;;;;;;;8.90;8.10;;;11.80;83.50;;;;;;4941608;29;20054;-70
2021/08/28 01:53:03;;;;;;;8.95;8.15;;;11.80;82.30;;;;;;4954420;29;20059;-72
2021/08/28 01:55:35;;;;;;;11.30;8.20;;;11.80;82.00;;;;;;4950435;29;20488;-69
2021/08/28 01:58:11;;;;;;;9.02;8.23;;;11.80;83.10;;;;;;4952945;29;20071;-70
2021/08/28 02:00:57;;;;;;;10.05;9.10;;;11.90;82.30;;;;;;4952143;29;20059;-69
2021/08/28 02:03:47;;;;;;;9.00;8.13;;;11.80;81.50;;;;;;4954633;29;20055;-71
2021/08/28 02:06:58;;;;;;;9.30;8.52;;;11.80;81.50;;;;;;4950001;29;20047;-69
2021/08/28 02:09:40;;;;;;;9.38;8.57;;;11.80;81.80;;;;;;4943943;29;20066;-72
2021/08/28 02:12:29;;;;;;;9.05;8.25;;;11.80;82.10;;;;;;4968337;29;20046;-70
2021/08/28 02:15:07;;;;;;;9.80;8.77;;;11.80;81.60;;;;;;4953340;29;20071;-71
2021/08/28 02:17:50;;;;;;;9.00;8.20;;;11.80;82.30;;;;;;4954442;29;20086;-69
2021/08/28 02:20:26;;;;;;;9.55;8.55;;;11.80;81.80;;;;;;4954551;29;20051;-69
2021/08/28 02:23:07;;;;;;;9.23;8.32;;;11.90;82.20;;;;;;4955257;29;20074;-71
2021/08/28 02:26:01;;;;;;;9.75;8.85;;;11.90;83.40;;;;;;4953898;29;20146;-71
2021/08/28 02:28:46;;;;;;;9.10;8.40;;;11.90;83.60;;;;;;4952832;29;20071;-71
2021/08/28 02:31:21;;;;;;;9.20;8.45;;;11.80;83.10;;;;;;4947177;29;20043;-70
2021/08/28 02:33:57;;;;;;;9.20;8.40;;;11.90;83.00;;;;;;4967870;29;20495;-69
2021/08/28 02:36:31;;;;;;;9.43;8.63;;;11.90;82.80;;;;;;4951957;29;20055;-70
2021/08/28 02:39:04;;;;;;;9.68;8.88;;;12.00;82.80;;;;;;4952614;29;20059;-70
2021/08/28 02:41:38;;;;;;;9.23;8.43;;;12.00;82.50;;;;;;4963809;29;20061;-70
2021/08/28 02:44:12;;;;;;;9.07;8.18;;;12.00;84.10;;;;;;4955202;29;20154;-71
2021/08/28 02:46:46;;;;;;;9.85;8.95;;;11.90;83.40;;;;;;4950450;29;20505;-70
2021/08/28 02:49:22;;;;;;;9.82;8.93;;;11.90;84.10;;;;;;4954640;29;20046;-72
2021/08/28 02:51:55;;;;;;;9.43;8.63;;;11.80;84.80;;;;;;4957138;29;20047;-70
2021/08/28 02:54:31;;;;;;;9.35;8.55;;;11.80;84.30;;;;;;4934447;29;20054;-70
2021/08/28 02:57:04;;;;;;;9.70;8.90;;;11.80;83.80;;;;;;4951474;29;20134;-69
2021/08/28 02:59:39;;;;;;;9.65;8.65;;;11.80;84.10;;;;;;4960595;29;20054;-70
2021/08/28 03:02:11;;;;;;;9.43;8.63;;;11.90;84.50;;;;;;4952830;29;20518;-70
2021/08/28 03:04:45;;;;;;;9.18;8.38;;;11.80;84.00;;;;;;4956050;29;20137;-70
2021/08/28 03:07:19;;;;;;;9.20;8.25;;;11.90;83.60;;;;;;4952445;29;20058;-71
2021/08/28 03:09:54;;;;;;;9.55;8.27;;;11.90;84.10;;;;;;4952535;29;20050;-69
2021/08/28 03:12:25;;;;;;;8.70;7.95;;;11.90;83.60;;;;;;4952672;29;20569;-69
2021/08/28 03:14:58;;;;;;;9.00;8.20;;;11.90;83.20;;;;;;4952705;29;20776;-69
2021/08/28 03:17:30;;;;;;;9.32;8.43;;;11.90;84.10;;;;;;4953191;29;21030;-70
2021/08/28 03:20:06;;;;;;;9.32;8.48;;;11.90;83.60;;;;;;4954538;29;20047;-71
2021/08/28 03:22:39;;;;;;;9.27;8.48;;;11.90;83.70;;;;;;4947293;29;20468;-70
2021/08/28 03:25:12;;;;;;;9.73;8.82;;;12.00;83.90;;;;;;4956053;29;20051;-70
2021/08/28 03:27:45;;;;;;;9.27;8.15;;;12.00;84.30;;;;;;4948657;29;20651;-69
2021/08/28 03:30:20;;;;;;;9.43;8.63;;;11.90;84.30;;;;;;4952530;29;20570;-70
2021/08/28 03:32:55;;;;;;;10.50;9.40;;;11.90;84.50;;;;;;4966605;29;20055;-70
2021/08/28 03:35:27;;;;;;;9.68;8.88;;;11.90;84.40;;;;;;4949436;29;20046;-72
2021/08/28 03:37:59;;;;;;;9.35;8.55;;;11.90;83.90;;;;;;4953891;29;20521;-71
2021/08/28 03:40:32;;;;;;;9.32;8.52;;;11.90;85.10;;;;;;4966613;29;20054;-71
2021/08/28 03:43:04;;;;;;;9.60;8.70;;;11.90;85.00;;;;;;4951907;29;20051;-70
2021/08/28 03:45:37;;;;;;;9.52;8.73;;;11.80;84.40;;;;;;4952095;29;20050;-70
2021/08/28 03:48:09;;;;;;;9.43;8.63;;;11.80;84.30;;;;;;4960087;29;20138;-70
2021/08/28 03:50:44;;;;;;;9.85;8.95;;;11.90;85.10;;;;;;4952009;29;20184;-71
2021/08/28 03:53:16;;;;;;;10.10;9.20;;;11.90;85.00;;;;;;4965379;29;20454;-72
2021/08/28 03:55:49;;;;;;;9.63;8.80;;;11.90;84.40;;;;;;4952941;29;20196;-71
2021/08/28 03:58:21;;;;;;;9.82;8.93;;;11.90;84.40;;;;;;4952898;29;20039;-71
2021/08/28 04:00:53;;;;;;;10.35;9.40;;;11.90;84.10;;;;;;4952158;29;20058;-73
2021/08/28 04:03:26;;;;;;;10.02;9.23;;;12.00;84.50;;;;;;4959609;29;20173;-70
2021/08/28 04:06:00;;;;;;;10.15;9.25;;;11.90;84.80;;;;;;4951430;29;20157;-73
2021/08/28 04:08:33;;;;;;;10.10;9.30;;;11.90;85.20;;;;;;4952108;29;20054;-73
2021/08/28 04:11:06;;;;;;;10.60;9.70;;;11.90;85.40;;;;;;4952901;29;20454;-73
2021/08/28 04:13:39;;;;;;;10.27;9.38;;;11.90;85.40;;;;;;4951318;29;20523;-71
2021/08/28 04:16:11;;;;;;;10.00;9.10;;;11.90;84.90;;;;;;4952594;29;20043;-72
2021/08/28 04:19:06;;;;;;;9.75;8.95;;;11.90;84.40;;;;;;4956533;29;20109;-72
2021/08/28 04:21:58;;;;;;;9.93;9.13;;;12.00;84.40;;;;;;4950628;29;20051;-71
2021/08/28 04:25:09;;;;;;;9.80;9.00;;;12.00;83.90;;;;;;4937718;29;20083;-71
2021/08/28 04:27:50;;;;;;;10.75;9.20;;;12.00;83.60;;;;;;4935445;30;20051;-71
2021/08/28 04:30:32;;;;;;;10.73;9.50;;;12.10;83.90;;;;;;4950801;29;20043;-71
2021/08/28 04:33:04;;;;;;;10.10;9.30;;;12.10;84.50;;;;;;4950488;29;20051;-72
2021/08/28 04:35:38;;;;;;;10.50;9.60;;;12.10;84.00;;;;;;4949558;29;20437;-73
2021/08/28 04:38:10;;;;;;;11.07;10.18;;;12.10;83.70;;;;;;4938075;29;20062;-72
2021/08/28 04:40:45;;;;;;;10.30;9.50;;;12.10;84.10;;;;;;4952530;29;20070;-72
2021/08/28 04:43:17;;;;;;;10.65;9.82;;;12.10;84.60;;;;;;4953039;29;20554;-72
2021/08/28 04:46:04;;;;;;;10.90;9.90;;;12.10;84.80;;;;;;4955251;29;20057;-71
2021/08/28 04:48:42;;;;;;;10.98;9.98;;;12.00;85.00;;;;;;4951976;29;20065;-70
2021/08/28 04:51:29;;;;;;;10.88;9.98;;;12.00;84.80;;;;;;4939042;29;20139;-71
2021/08/28 04:54:02;;;;;;;11.50;10.60;;;12.00;85.30;;;;;;4951379;29;20454;-73
2021/08/28 04:56:34;;;;;;;11.18;10.27;;;12.00;85.30;;;;;;4948225;29;20120;-71
2021/08/28 04:59:08;;;;;;;11.63;10.63;;;12.00;85.80;;;;;;4953243;29;20051;-71
2021/08/28 05:01:52;;;;;;;11.48;10.57;;;11.90;86.00;;;;;;4953968;29;20051;-71
2021/08/28 05:04:25;;;;;;;11.27;10.27;;;11.90;85.80;;;;;;4951617;29;20120;-71
2021/08/28 05:06:59;;;;;;;11.48;10.50;;;11.90;86.00;;;;;;4937270;29;20489;-72
2021/08/28 05:09:54;;;;;;;11.73;10.82;;;11.80;85.50;;;;;;4959818;29;20222;-71
2021/08/28 05:12:26;;;;;;;10.50;9.70;;;12.00;85.60;;;;;;4950827;29;20651;-72
2021/08/28 05:15:17;;;;;;;10.52;9.70;;;12.00;85.60;;;;;;4954535;29;20058;-73
2021/08/28 05:18:04;;;;;;;10.57;9.65;;;12.00;85.70;;;;;;4949253;29;20197;-72
2021/08/28 05:20:37;;;;;;;10.55;9.65;;;12.00;85.70;;;;;;4936921;29;20050;-72
2021/08/28 05:23:39;;;;;;;10.70;9.73;;;12.00;85.40;;;;;;4954072;29;20050;-72
2021/08/28 05:26:39;;;;;;;10.27;9.48;;;12.00;85.10;;;;;;4958619;29;20434;-72
2021/08/28 05:29:11;;;;;;;11.10;10.20;;;12.10;85.10;;;;;;4951844;29;20126;-73
2021/08/28 05:31:44;;;;;;;10.68;9.85;;;12.10;85.00;;;;;;4952340;29;20054;-73
2021/08/28 05:34:19;;;;;;;10.07;9.27;;;12.10;85.10;;;;;;4955292;29;20038;-71
2021/08/28 05:37:16;;;;;;;10.80;9.90;;;12.10;85.40;;;;;;4951800;29;20143;-72
2021/08/28 05:40:07;;;;;;;10.57;9.68;;;12.10;85.10;;;;;;4951419;29;20058;-71
2021/08/28 05:42:41;;;;;;;10.10;9.30;;;12.10;84.60;;;;;;4950710;29;20055;-73
2021/08/28 05:45:13;;;;;;;10.50;9.70;;;12.20;85.40;;;;;;4952704;29;20066;-71
2021/08/28 05:47:45;;;;;;;10.63;9.80;;;12.20;85.00;;;;;;4954809;29;20555;-71
2021/08/28 05:50:21;;;;;;;10.75;9.85;;;12.10;85.30;;;;;;4955646;29;20756;-72
2021/08/28 05:52:53;;;;;;;10.02;9.13;;;12.20;85.20;;;;;;4954897;29;20050;-72
2021/08/28 05:55:26;;;;;;;9.57;8.68;;;12.20;85.30;;;;;;4950965;29;20055;-73
2021/08/28 05:57:58;;;;;;;10.85;9.85;;;12.20;85.40;;;;;;4963309;29;20058;-71
2021/08/28 06:00:31;;;;;;;9.68;8.88;;;12.20;85.70;;;;;;4955598;29;20099;-72
2021/08/28 06:03:10;;;;;;;9.90;9.00;;;12.30;85.50;;;;;;4952372;29;20492;-72
2021/08/28 06:05:42;;;;;;;9.57;8.77;;;12.30;84.90;;;;;;4956017;29;20752;-72
2021/08/28 06:08:23;;;;;;;9.80;9.00;;;12.30;86.00;;;;;;4957890;29;20047;-73
2021/08/28 06:11:17;;;;;;;11.35;10.35;;;12.30;85.70;;;;;;4953551;29;20047;-73
2021/08/28 06:14:07;;;;;;;10.68;9.77;;;12.30;86.40;;;;;;4951032;29;20043;-73
2021/08/28 06:16:45;;;;;;;10.07;9.18;;;12.40;86.00;;;;;;4954410;29;20043;-72
2021/08/28 06:19:24;;;;;;;10.85;9.93;;;12.50;85.50;;;;;;4957634;29;20051;-72
2021/08/28 06:21:57;;;;;;;10.55;9.65;;;12.50;86.10;;;;;;4959277;29;20127;-72
2021/08/28 06:24:29;;;;;;;10.90;10.00;;;12.60;86.50;;;;;;4957016;29;20755;-71
2021/08/28 06:27:10;;;;;;;10.90;9.90;;;12.60;86.20;;;;;;4951902;29;20533;-71
2021/08/28 06:29:42;;;;;;;11.50;10.32;;;12.60;85.00;;;;;;4938956;29;20108;-72
2021/08/28 06:32:15;;;;;;;11.20;10.30;;;12.60;84.90;;;;;;4959901;29;20051;-72
2021/08/28 06:34:47;;;;;;;11.15;10.20;;;12.60;85.00;;;;;;4952377;29;20054;-71
2021/08/28 06:37:23;;;;;;;11.30;10.20;;;12.70;85.30;;;;;;4951811;29;20051;-71
2021/08/28 06:40:14;;;;;;;;;;;12.60;85.00;;;;;;4953697;29;20578;-73
2021/08/28 06:43:04;;;;;;;11.30;10.35;;;12.60;85.40;;;;;;4955748;29;20607;-72
2021/08/28 06:45:55;;;;;;;10.70;9.80;;;12.50;85.90;;;;;;4953407;29;20107;-71
2021/08/28 06:48:45;;;;;;;11.48;10.48;;;12.50;87.00;;;;;;4954393;29;20089;-71
2021/08/28 06:51:36;;;;;;;10.10;9.30;;;12.50;86.60;;;;;;4954864;29;20047;-71
2021/08/28 06:54:45;;;;;;;10.98;10.07;;;12.50;86.20;;;;;;4912342;30;20062;-71
2021/08/28 06:57:35;;;;;;;10.73;9.82;;;12.50;85.90;;;;;;4950439;29;20527;-71
2021/08/28 07:00:25;;;;;;;11.90;10.68;;;12.60;85.70;;;;;;4965647;29;20065;-71
2021/08/28 07:03:16;;;;;;;11.73;10.73;;;12.60;86.20;;;;;;4951506;29;20133;-71
2021/08/28 07:05:49;;;;;;;11.68;10.77;;;12.70;85.70;;;;;;4959781;29;20139;-72
2021/08/28 07:08:28;;;;;;;11.80;10.80;;;12.70;85.10;;;;;;4954844;29;20067;-72
2021/08/28 07:11:01;;;;;;;11.52;10.63;;;12.70;86.20;;;;;;4952947;29;20158;-71
2021/08/28 07:13:34;;;;;;;12.73;11.73;;;12.80;86.30;;;;;;4965727;29;20059;-72
2021/08/28 07:16:06;;;;;;;11.85;10.85;;;12.80;87.10;;;;;;4951490;29;20050;-72
2021/08/28 07:18:38;;;;;;;11.95;11.00;;;12.80;85.90;;;;;;4952094;29;20067;-72
2021/08/28 07:21:13;;;;;;;11.15;10.15;;;12.90;85.10;;;;;;4940423;29;20054;-72
2021/08/28 07:23:49;;;;;;;10.80;9.90;;;12.90;85.10;;;;;;4957206;29;20051;-72
2021/08/28 07:26:32;;;;;;;11.02;9.93;;;12.90;85.20;;;;;;5382763;24;20044;-71
2021/08/28 07:32:34;;;;;;;10.63;9.73;;;12.90;85.20;;;;;;5595460;24;20058;-72
2021/08/28 07:35:07;;;;;;;11.68;10.68;;;13.00;85.30;;;;;;4956629;29;20058;-70
2021/08/28 07:37:42;;;;;;;11.48;10.38;;;13.00;85.10;;;;;;4941478;29;20441;-74
2021/08/28 07:40:14;;;;;;;12.38;9.98;;;13.10;85.20;;;;;;4942041;29;20065;-74
2021/08/28 07:42:59;;;;;;;10.98;9.90;;;13.10;85.40;;;;;;4952150;29;20055;-72
2021/08/28 07:45:37;;;;;;;11.07;10.18;;;13.10;85.20;;;;;;4943642;29;20055;-73
2021/08/28 07:48:15;;;;;;;11.55;10.55;;;13.10;84.70;;;;;;4935670;29;20051;-73
2021/08/28 07:50:48;;;;;;;11.90;10.80;;;13.10;84.70;;;;;;4935388;29;20051;-72
2021/08/28 07:53:20;;;;;;;11.60;10.60;;;13.10;84.50;;;;;;4944865;29;20054;-75
2021/08/28 07:55:58;;;;;;;11.38;10.38;;;13.20;84.70;;;;;;4947345;29;20117;-74
2021/08/28 07:58:30;;;;;;;11.80;10.70;;;13.20;85.00;;;;;;4943083;29;20078;-74
2021/08/28 08:01:02;;;;;;;12.23;11.23;;;13.10;85.30;;;;;;4954263;29;20113;-75
2021/08/28 08:03:44;;;;;;;11.45;10.45;;;13.10;84.90;;;;;;4935658;29;20079;-75
2021/08/28 08:06:23;;;;;;;11.63;10.63;;;13.20;84.50;;;;;;4944704;29;20054;-71
2021/08/28 08:09:33;;;;;;;11.38;10.32;;;13.20;84.80;;;;;;4937830;29;20055;-72
2021/08/28 08:12:23;;;;;;;;;;;13.20;85.40;;;;;;4944381;29;20071;-73
2021/08/28 08:15:13;;;;;;;11.23;10.32;;;13.20;85.20;;;;;;4936947;29;19928;-71
2021/08/28 08:18:15;;;;;;;11.00;9.98;;;13.30;84.90;;;;;;4915004;29;20059;-72
2021/08/28 08:21:22;;;;;;;11.48;10.48;;;13.50;84.40;;;;;;4917140;30;20047;-72
2021/08/28 08:24:22;;;;;;;10.77;9.88;;;13.60;83.80;;;;;;5307097;24;20139;-72
2021/08/28 08:27:14;;;;;;;11.70;10.73;;;13.70;84.40;;;;;;4951714;29;20046;-72
2021/08/28 08:30:05;;;;;;;;;;;13.70;84.00;;;;;;4953567;29;20066;-72
2021/08/28 08:32:49;;;;;;;11.52;10.52;;;13.70;83.70;;;;;;4961445;29;19929;-72
2021/08/28 08:35:21;;;;;;;11.80;10.80;;;13.70;83.70;;;;;;4942556;29;20051;-71
2021/08/28 08:37:57;;;;;;;10.70;9.80;;;13.60;83.30;;;;;;4942388;29;20055;-73
2021/08/28 08:40:30;;;;;;;10.90;10.00;;;13.60;83.60;;;;;;4942631;29;20054;-72
2021/08/28 08:43:05;;;;;;;10.50;9.60;;;13.60;83.30;;;;;;4934827;29;20083;-71
2021/08/28 08:45:37;;;;;;;10.75;9.85;;;13.50;83.60;;;;;;4941635;29;20424;-71
2021/08/28 08:48:11;;;;;;;10.23;9.32;;;13.40;84.40;;;;;;4942359;29;20043;-71
2021/08/28 08:50:47;;;;;;;10.55;9.75;;;13.40;85.00;;;;;;4943231;29;20058;-71
2021/08/28 08:53:28;;;;;;;11.00;10.10;;;13.50;84.90;;;;;;4933473;29;20048;-71
2021/08/28 08:56:15;;;;;;;10.50;9.70;;;13.60;84.80;;;;;;4935451;29;20051;-73
2021/08/28 08:58:52;;;;;;;10.90;10.00;;;13.70;83.70;;;;;;4958929;29;20051;-72
2021/08/28 09:01:24;;;;;;;11.80;10.70;;;13.70;83.00;;;;;;4926281;29;20058;-71
2021/08/28 09:04:15;;;;;;;11.35;10.35;;;13.70;84.10;;;;;;4942653;29;20116;-72
2021/08/28 09:06:49;;;;;;;12.18;11.10;;;13.70;84.40;;;;;;4935118;29;20055;-72
2021/08/28 09:09:23;;;;;;;12.18;11.10;;;13.80;84.80;;;;;;4944467;29;20046;-72
2021/08/28 09:12:05;;;;;;;10.82;9.82;;;13.80;84.50;;;;;;4943258;29;20055;-72
2021/08/28 09:14:38;;;;;;;10.45;9.63;;;13.80;84.20;;;;;;4944738;29;20112;-72
2021/08/28 09:17:18;;;;;;;11.10;10.20;;;13.80;84.70;;;;;;4942979;29;20868;-71
2021/08/28 09:19:50;;;;;;;11.27;10.32;;;13.80;85.80;;;;;;4945216;29;20055;-71
2021/08/28 09:22:31;;;;;;;10.52;9.73;;;13.90;85.30;;;;;;4946863;29;20047;-71
2021/08/28 09:25:05;;;;;;;9.80;9.00;;;13.90;84.40;;;;;;4946781;29;20484;-69
2021/08/28 09:27:40;;;;;;;9.88;9.07;;;13.80;83.00;;;;;;4948154;29;20138;-71
2021/08/28 09:30:19;;;;;;;9.65;8.85;;;13.80;84.10;;;;;;4946945;29;20104;-70
2021/08/28 09:32:58;;;;;;;9.63;8.82;;;13.70;84.70;;;;;;4945501;29;20113;-71
2021/08/28 09:35:33;;;;;;;10.80;9.75;;;13.70;84.90;;;;;;4944195;29;20051;-71
2021/08/28 09:38:13;;;;;;;9.50;8.70;;;13.70;84.80;;;;;;4946384;29;20055;-71
2021/08/28 09:40:55;;;;;;;9.82;9.02;;;13.70;84.30;;;;;;4945538;29;20519;-73
2021/08/28 09:43:27;;;;;;;9.95;9.07;;;13.70;84.20;;;;;;4944400;29;20184;-72
2021/08/28 09:46:09;;;;;;;9.40;8.70;;;13.70;83.70;;;;;;4945412;29;20067;-71
2021/08/28 09:48:41;;;;;;;9.40;8.60;;;13.70;82.90;;;;;;4947033;29;20078;-71
2021/08/28 09:51:13;;;;;;;9.80;9.10;;;13.60;84.10;;;;;;4956266;29;20051;-71
2021/08/28 09:53:59;;;;;;;10.52;9.32;;;13.60;83.20;;;;;;4946380;29;20453;-71
2021/08/28 09:56:31;;;;;;;10.27;9.38;;;13.60;84.30;;;;;;4946407;29;20047;-74
2021/08/28 09:59:17;;;;;;;10.70;9.80;;;13.60;84.80;;;;;;4946601;29;20079;-72
2021/08/28 10:01:49;;;;;;;11.38;10.30;;;13.70;84.50;;;;;;4945660;29;20116;-72
2021/08/28 10:04:21;;;;;;;13.93;12.63;;;13.70;85.20;;;;;;4947081;29;20626;-71
2021/08/28 10:06:55;;;;;;;11.20;10.30;;;13.90;84.90;;;;;;4946527;29;20051;-72
2021/08/28 10:09:27;;;;;;;10.70;9.80;;;13.90;84.70;;;;;;4944638;29;20130;-71
2021/08/28 10:11:59;;;;;;;10.20;9.40;;;13.90;83.50;;;;;;4945075;29;20355;-73
2021/08/28 10:14:31;;;;;;;10.23;9.43;;;13.90;84.50;;;;;;4947032;29;20431;-73
2021/08/28 10:17:03;;;;;;;10.88;10.07;;;13.90;83.90;;;;;;4946173;29;20139;-72
2021/08/28 10:19:36;;;;;;;9.98;9.18;;;13.90;83.80;;;;;;4946505;29;20047;-72
2021/08/28 10:22:11;;;;;;;9.50;8.70;;;13.90;83.50;;;;;;4945513;29;20103;-72
2021/08/28 10:24:44;;;;;;;10.32;9.52;;;13.90;82.90;;;;;;4947351;29;20059;-72
2021/08/28 10:27:17;;;;;;;10.30;9.50;;;13.90;84.10;;;;;;4946426;29;20055;-72
2021/08/28 10:29:53;;;;;;;10.45;9.65;;;14.00;84.50;;;;;;4947274;29;20417;-73
2021/08/28 10:32:26;;;;;;;10.27;9.30;;;14.00;84.10;;;;;;4944129;29;20106;-71
2021/08/28 10:34:58;;;;;;;10.68;9.88;;;14.10;84.50;;;;;;4939885;29;20071;-71
2021/08/28 10:37:30;;;;;;;10.20;9.40;;;14.20;84.60;;;;;;4946030;29;20079;-72
2021/08/28 10:40:06;;;;;;;10.13;9.32;;;14.20;83.90;;;;;;4945247;29;20074;-72
2021/08/28 10:42:40;;;;;;;10.27;9.48;;;14.10;83.40;;;;;;4945600;29;20140;-72
2021/08/28 10:45:12;;;;;;;10.60;9.80;;;14.10;84.60;;;;;;4945909;29;20043;-73
2021/08/28 10:47:59;;;;;;;10.60;9.80;;;14.00;84.40;;;;;;4935472;29;20091;-71
2021/08/28 10:50:34;;;;;;;10.80;10.00;;;14.00;84.10;;;;;;4944328;29;20422;-72
2021/08/28 10:53:07;;;;;;;9.90;9.20;;;14.00;83.10;;;;;;4944602;29;20059;-71
2021/08/28 10:55:42;;;;;;;10.40;9.60;;;13.80;82.40;;;;;;4945309;29;20100;-72
2021/08/28 10:58:18;;;;;;;10.57;9.60;;;13.80;82.00;;;;;;4945074;29;20059;-71
2021/08/28 11:00:54;;;;;;;10.52;9.63;;;13.70;81.90;;;;;;4945775;29;20424;-71
2021/08/28 11:03:35;;;;;;;9.50;8.60;;;13.60;80.40;;;;;;4944841;29;20047;-71
2021/08/28 11:06:13;;;;;;;9.90;9.10;;;13.50;82.00;;;;;;4944230;29;20062;-72
2021/08/28 11:08:54;;;;;;;9.73;8.93;;;13.50;81.90;;;;;;4943528;29;20059;-72
2021/08/28 11:11:35;;;;;;;;;;;13.40;81.30;;;;;;4944329;29;20154;-72
2021/08/28 11:14:13;;;;;;;9.57;8.75;;;13.40;81.00;;;;;;4945224;29;20462;-73
2021/08/28 11:16:54;;;;;;;9.05;8.27;;;13.20;82.10;;;;;;4945339;29;20123;-71
2021/08/28 11:19:28;;;;;;;9.38;8.57;;;13.10;82.30;;;;;;4944630;29;20519;-71
2021/08/28 11:22:05;;;;;;;8.90;8.20;;;13.10;82.70;;;;;;4945384;29;20161;-72
2021/08/28 11:24:54;;;;;;;9.13;8.43;;;13.10;83.30;;;;;;4944884;29;20079;-71
2021/08/28 11:27:48;;;;;;;9.00;8.30;;;13.10;82.50;;;;;;4944347;29;20142;-71
2021/08/28 11:30:45;;;;;;;8.95;8.05;;;13.10;82.00;;;;;;4944622;29;20138;-71
2021/08/28 11:33:22;;;;;;;9.43;8.70;;;13.00;82.20;;;;;;4944529;29;20454;-72
2021/08/28 11:36:05;;;;;;;9.05;8.35;;;12.90;83.00;;;;;;4943008;29;20148;-71
2021/08/28 11:38:40;;;;;;;8.93;8.15;;;13.00;83.30;;;;;;4944448;29;20132;-73
2021/08/28 11:41:13;;;;;;;8.98;8.23;;;13.00;82.60;;;;;;4942912;29;20083;-70
2021/08/28 11:43:45;;;;;;;8.80;8.10;;;12.90;82.50;;;;;;4943521;29;20093;-71
2021/08/28 11:46:29;;;;;;;8.85;8.05;;;12.80;82.60;;;;;;4944963;29;20071;-72
2021/08/28 11:49:02;;;;;;;9.07;8.38;;;12.80;82.90;;;;;;4943724;29;20548;-73
2021/08/28 11:51:36;;;;;;;9.35;8.55;;;12.70;83.10;;;;;;4944866;29;20086;-71
2021/08/28 11:54:10;;;;;;;9.15;8.45;;;12.60;84.00;;;;;;4944308;29;20566;-73
2021/08/28 11:56:42;;;;;;;9.52;8.73;;;12.60;84.10;;;;;;4944707;29;20594;-72
2021/08/28 11:59:15;;;;;;;9.10;8.40;;;12.60;84.20;;;;;;4944504;29;20054;-72
2021/08/28 12:01:47;;;;;;;9.55;8.75;;;12.60;83.90;;;;;;4942757;29;20932;-71
2021/08/28 12:04:20;;;;;;;9.00;8.25;;;12.70;84.10;;;;;;4943386;29;20058;-75
2021/08/28 12:06:56;;;;;;;8.68;7.97;;;12.70;84.50;;;;;;4944128;29;20065;-74
2021/08/28 12:09:28;;;;;;;9.30;8.50;;;12.70;84.60;;;;;;4944306;29;20071;-74
2021/08/28 12:12:00;;;;;;;9.05;8.35;;;12.70;84.50;;;;;;4943716;29;20057;-74
2021/08/28 12:14:32;;;;;;;9.35;8.55;;;12.70;84.60;;;;;;4944326;29;20105;-73
2021/08/28 12:17:04;;;;;;;9.00;8.20;;;12.70;84.80;;;;;;4944894;29;20134;-71
2021/08/28 12:19:37;;;;;;;9.15;8.40;;;12.80;85.00;;;;;;4944964;29;20126;-71
2021/08/28 12:22:09;;;;;;;9.38;8.68;;;12.80;84.60;;;;;;4933775;29;20939;-72
2021/08/28 12:24:40;;;;;;;9.00;8.30;;;12.80;84.10;;;;;;4944383;29;20050;-72
2021/08/28 12:27:13;;;;;;;9.15;8.43;;;12.90;84.60;;;;;;4943625;29;20138;-72
2021/08/28 12:29:47;;;;;;;9.30;8.60;;;12.90;83.90;;;;;;4943824;29;20518;-71
2021/08/28 12:32:25;;;;;;;9.50;8.60;;;12.90;84.50;;;;;;4943653;29;20127;-71
2021/08/28 12:34:59;;;;;;;9.27;8.50;;;13.00;84.00;;;;;;4944293;29;20441;-70
2021/08/28 12:37:32;;;;;;;8.77;8.07;;;13.00;83.50;;;;;;4944075;29;20039;-72
2021/08/28 12:40:14;;;;;;;9.30;8.60;;;13.00;84.00;;;;;;4944735;29;20059;-71
2021/08/28 12:42:46;;;;;;;9.00;8.30;;;13.00;83.80;;;;;;4943119;29;20167;-71
2021/08/28 12:45:19;;;;;;;8.80;8.10;;;13.00;83.70;;;;;;4943106;29;20043;-73
2021/08/28 12:47:51;;;;;;;9.30;8.60;;;12.80;83.30;;;;;;4943403;29;20221;-71
2021/08/28 12:50:23;;;;;;;8.95;8.25;;;12.70;83.80;;;;;;4942369;29;20105;-70
2021/08/28 12:53:05;;;;;;;9.00;8.30;;;12.70;85.00;;;;;;4929811;29;20048;-70
2021/08/28 12:55:37;;;;;;;9.20;8.50;;;12.70;84.40;;;;;;4948953;29;20051;-70
2021/08/28 12:58:10;;;;;;;9.23;8.52;;;12.70;84.10;;;;;;4952012;29;20130;-71
2021/08/28 13:00:45;;;;;;;9.30;8.60;;;12.60;84.40;;;;;;4948691;29;20816;-71
2021/08/28 13:03:28;;;;;;;9.30;8.60;;;12.60;85.40;;;;;;4951833;29;20147;-70
2021/08/28 13:06:01;;;;;;;9.35;8.65;;;12.70;85.50;;;;;;4946702;29;20047;-73
2021/08/28 13:08:35;;;;;;;9.15;8.30;;;12.80;85.90;;;;;;4948166;29;20079;-73
2021/08/28 13:11:24;;;;;;;9.82;9.02;;;12.80;85.90;;;;;;4946208;29;20058;-73
2021/08/28 13:14:00;;;;;;;10.00;9.20;;;12.90;86.00;;;;;;4947876;29;20533;-72
2021/08/28 13:16:32;;;;;;;11.55;10.55;;;12.90;86.00;;;;;;4946128;29;20509;-72
2021/08/28 13:19:12;;;;;;;10.30;9.40;;;13.00;86.50;;;;;;4947496;29;20051;-73
2021/08/28 13:21:46;;;;;;;;;;;12.90;85.40;;;;;;4946785;29;20108;-73
2021/08/28 13:24:19;;;;;;;10.00;9.10;;;12.80;85.20;;;;;;4947449;29;20024;-73
2021/08/28 13:26:58;;;;;;;9.52;8.73;;;12.80;85.40;;;;;;4946510;29;20079;-72
2021/08/28 13:29:33;;;;;;;10.27;9.45;;;12.70;86.50;;;;;;4944179;29;20051;-72
2021/08/28 13:32:10;;;;;;;9.55;8.75;;;12.70;86.10;;;;;;4935777;29;20070;-73
2021/08/28 13:34:50;;;;;;;9.77;8.98;;;12.70;86.70;;;;;;4938240;29;20888;-73
2021/08/28 13:37:21;;;;;;;10.18;9.38;;;12.80;87.00;;;;;;4944005;29;20075;-72
2021/08/28 13:39:53;;;;;;;10.00;9.20;;;12.90;86.40;;;;;;4946486;29;20134;-72